sensor_id;sensor_type;location;lat;lon;timestamp;temperature;humidity
10278;DHT22;5184;51.376;7.148;2023-07-28T00:00:26;16.50;99.90
10278;DHT22;5184;51.376;7.148;2023-07-28T00:02:54;16.50;99.90
10278;DHT22;5184;51.376;7.148;2023-07-28T00:05:20;16.50;99.90
10278;DHT22;5184;51.376;7.148;2023-07-28T00:07:47;16.50;99.90
10278;DHT22;5184;51.376;7.148;2023-07-28T00:10:14;16.50;99.90
10278;DHT22;5184;51.376;7.148;2023-07-28T00:12:40;16.50;99.90
10278;DHT22;5184;51.376;7.148;2023-07-28T00:15:07;16.50;99.90
10278;DHT22;5184;51.376;7.148;2023-07-28T00:17:33;16.50;99.90
10278;DHT22;5184;51.376;7.148;2023-07-28T00:20:00;16.50;99.90
10278;DHT22;5184;51.376;7.148;2023-07-28T00:22:27;16.50;99.90
10278;DHT22;5184;51.376;7.148;2023-07-28T00:24:53;16.50;99.90
10278;DHT22;5184;51.376;7.148;2023-07-28T00:27:21;16.50;99.90
10278;DHT22;5184;51.376;7.148;2023-07-28T00:29:47;16.50;99.90
10278;DHT22;5184;51.376;7.148;2023-07-28T00:32:14;16.40;99.90
10278;DHT22;5184;51.376;7.148;2023-07-28T00:34:40;16.40;99.90
10278;DHT22;5184;51.376;7.148;2023-07-28T00:37:07;16.40;99.90
10278;DHT22;5184;51.376;7.148;2023-07-28T00:39:33;16.50;99.90
10278;DHT22;5184;51.376;7.148;2023-07-28T00:42:01;16.50;99.90
10278;DHT22;5184;51.376;7.148;2023-07-28T00:44:27;16.40;99.90
10278;DHT22;5184;51.376;7.148;2023-07-28T00:46:54;16.40;99.90
10278;DHT22;5184;51.376;7.148;2023-07-28T00:49:21;16.40;99.90
10278;DHT22;5184;51.376;7.148;2023-07-28T00:51:47;16.40;99.90
10278;DHT22;5184;51.376;7.148;2023-07-28T00:54:14;16.40;99.90
10278;DHT22;5184;51.376;7.148;2023-07-28T00:56:41;16.40;99.90
10278;DHT22;5184;51.376;7.148;2023-07-28T00:59:09;16.50;99.90
10278;DHT22;5184;51.376;7.148;2023-07-28T01:01:36;16.50;99.90
10278;DHT22;5184;51.376;7.148;2023-07-28T01:04:03;16.50;99.90
10278;DHT22;5184;51.376;7.148;2023-07-28T01:06:35;16.50;99.90
10278;DHT22;5184;51.376;7.148;2023-07-28T01:09:02;16.50;99.90
10278;DHT22;5184;51.376;7.148;2023-07-28T01:11:29;16.50;99.90
10278;DHT22;5184;51.376;7.148;2023-07-28T01:13:55;16.40;99.90
10278;DHT22;5184;51.376;7.148;2023-07-28T01:16:22;16.50;99.90
10278;DHT22;5184;51.376;7.148;2023-07-28T01:18:49;16.50;99.90
10278;DHT22;5184;51.376;7.148;2023-07-28T01:21:20;16.50;99.90
10278;DHT22;5184;51.376;7.148;2023-07-28T01:23:51;16.50;99.90
10278;DHT22;5184;51.376;7.148;2023-07-28T01:50:12;16.40;99.90
10278;DHT22;5184;51.376;7.148;2023-07-28T01:52:39;16.50;99.90
10278;DHT22;5184;51.376;7.148;2023-07-28T01:55:06;16.40;99.90
10278;DHT22;5184;51.376;7.148;2023-07-28T01:57:33;16.40;99.90
10278;DHT22;5184;51.376;7.148;2023-07-28T02:00:00;16.40;99.90
10278;DHT22;5184;51.376;7.148;2023-07-28T02:02:26;16.50;99.90
10278;DHT22;5184;51.376;7.148;2023-07-28T02:04:53;16.40;99.90
10278;DHT22;5184;51.376;7.148;2023-07-28T02:07:19;16.50;99.90
10278;DHT22;5184;51.376;7.148;2023-07-28T02:09:47;16.50;99.90
10278;DHT22;5184;51.376;7.148;2023-07-28T02:12:14;16.50;99.90
10278;DHT22;5184;51.376;7.148;2023-07-28T02:14:41;16.50;99.90
10278;DHT22;5184;51.376;7.148;2023-07-28T02:17:08;16.50;99.90
10278;DHT22;5184;51.376;7.148;2023-07-28T02:19:35;16.50;99.90
10278;DHT22;5184;51.376;7.148;2023-07-28T02:22:01;16.50;99.90
10278;DHT22;5184;51.376;7.148;2023-07-28T02:24:28;16.50;99.90
10278;DHT22;5184;51.376;7.148;2023-07-28T02:26:54;16.50;99.90
10278;DHT22;5184;51.376;7.148;2023-07-28T02:29:22;16.50;99.90
10278;DHT22;5184;51.376;7.148;2023-07-28T02:31:49;16.50;99.90
10278;DHT22;5184;51.376;7.148;2023-07-28T02:34:16;16.50;99.90
10278;DHT22;5184;51.376;7.148;2023-07-28T02:36:42;16.50;99.90
10278;DHT22;5184;51.376;7.148;2023-07-28T02:39:09;16.50;99.90
10278;DHT22;5184;51.376;7.148;2023-07-28T02:41:36;16.50;99.90
10278;DHT22;5184;51.376;7.148;2023-07-28T02:44:02;16.50;99.90
10278;DHT22;5184;51.376;7.148;2023-07-28T02:46:29;16.50;99.90
10278;DHT22;5184;51.376;7.148;2023-07-28T02:48:55;16.50;99.90
10278;DHT22;5184;51.376;7.148;2023-07-28T02:51:23;16.50;99.90
10278;DHT22;5184;51.376;7.148;2023-07-28T02:53:50;16.50;99.90
10278;DHT22;5184;51.376;7.148;2023-07-28T02:56:18;16.60;99.90
10278;DHT22;5184;51.376;7.148;2023-07-28T02:58:44;16.50;99.90
10278;DHT22;5184;51.376;7.148;2023-07-28T03:01:11;16.50;99.90
10278;DHT22;5184;51.376;7.148;2023-07-28T03:03:37;16.60;99.90
10278;DHT22;5184;51.376;7.148;2023-07-28T03:06:04;16.60;99.90
10278;DHT22;5184;51.376;7.148;2023-07-28T03:08:30;16.60;99.90
10278;DHT22;5184;51.376;7.148;2023-07-28T03:10:58;16.60;99.90
10278;DHT22;5184;51.376;7.148;2023-07-28T03:13:25;16.60;99.90
10278;DHT22;5184;51.376;7.148;2023-07-28T03:15:53;16.60;99.90
10278;DHT22;5184;51.376;7.148;2023-07-28T03:18:19;16.60;99.90
10278;DHT22;5184;51.376;7.148;2023-07-28T03:20:46;16.60;99.90
10278;DHT22;5184;51.376;7.148;2023-07-28T03:23:13;16.60;99.90
10278;DHT22;5184;51.376;7.148;2023-07-28T03:25:39;16.60;99.90
10278;DHT22;5184;51.376;7.148;2023-07-28T03:28:06;16.60;99.90
10278;DHT22;5184;51.376;7.148;2023-07-28T03:30:33;16.60;99.90
10278;DHT22;5184;51.376;7.148;2023-07-28T03:33:00;16.60;99.90
10278;DHT22;5184;51.376;7.148;2023-07-28T03:35:26;16.60;99.90
10278;DHT22;5184;51.376;7.148;2023-07-28T03:37:53;16.60;99.90
10278;DHT22;5184;51.376;7.148;2023-07-28T03:40:19;16.60;99.90
10278;DHT22;5184;51.376;7.148;2023-07-28T03:42:46;16.60;99.90
10278;DHT22;5184;51.376;7.148;2023-07-28T03:45:13;16.60;99.90
10278;DHT22;5184;51.376;7.148;2023-07-28T03:47:41;16.60;99.90
10278;DHT22;5184;51.376;7.148;2023-07-28T03:50:08;16.60;99.90
10278;DHT22;5184;51.376;7.148;2023-07-28T03:52:35;16.60;99.90
10278;DHT22;5184;51.376;7.148;2023-07-28T03:55:02;16.60;99.90
10278;DHT22;5184;51.376;7.148;2023-07-28T03:57:29;16.60;99.90
10278;DHT22;5184;51.376;7.148;2023-07-28T03:59:55;16.70;99.90
10278;DHT22;5184;51.376;7.148;2023-07-28T04:02:22;16.60;99.90
10278;DHT22;5184;51.376;7.148;2023-07-28T04:04:53;16.70;99.90
10278;DHT22;5184;51.376;7.148;2023-07-28T04:07:19;16.70;99.90
10278;DHT22;5184;51.376;7.148;2023-07-28T04:09:46;16.70;99.90
10278;DHT22;5184;51.376;7.148;2023-07-28T04:12:13;16.70;99.90
10278;DHT22;5184;51.376;7.148;2023-07-28T04:14:40;16.70;99.90
10278;DHT22;5184;51.376;7.148;2023-07-28T04:17:06;16.70;99.90
10278;DHT22;5184;51.376;7.148;2023-07-28T04:19:33;16.70;99.90
10278;DHT22;5184;51.376;7.148;2023-07-28T04:22:00;16.70;99.90
10278;DHT22;5184;51.376;7.148;2023-07-28T04:24:27;16.70;99.90
10278;DHT22;5184;51.376;7.148;2023-07-28T04:26:54;16.70;99.90
10278;DHT22;5184;51.376;7.148;2023-07-28T04:29:21;16.70;99.90
10278;DHT22;5184;51.376;7.148;2023-07-28T04:31:47;16.70;99.90
10278;DHT22;5184;51.376;7.148;2023-07-28T04:34:14;16.70;99.90
10278;DHT22;5184;51.376;7.148;2023-07-28T04:36:41;16.80;99.90
10278;DHT22;5184;51.376;7.148;2023-07-28T04:39:07;16.80;99.90
10278;DHT22;5184;51.376;7.148;2023-07-28T04:41:34;16.80;99.90
10278;DHT22;5184;51.376;7.148;2023-07-28T04:44:01;16.80;99.90
10278;DHT22;5184;51.376;7.148;2023-07-28T04:46:28;16.80;99.90
10278;DHT22;5184;51.376;7.148;2023-07-28T04:48:55;16.80;99.90
10278;DHT22;5184;51.376;7.148;2023-07-28T04:51:21;16.80;99.90
10278;DHT22;5184;51.376;7.148;2023-07-28T04:53:48;16.90;99.90
10278;DHT22;5184;51.376;7.148;2023-07-28T04:56:14;16.90;99.90
10278;DHT22;5184;51.376;7.148;2023-07-28T04:58:42;16.90;99.90
10278;DHT22;5184;51.376;7.148;2023-07-28T05:01:09;17.00;99.90
10278;DHT22;5184;51.376;7.148;2023-07-28T05:03:36;16.90;99.90
10278;DHT22;5184;51.376;7.148;2023-07-28T05:06:03;17.00;99.90
10278;DHT22;5184;51.376;7.148;2023-07-28T05:08:29;17.00;99.90
10278;DHT22;5184;51.376;7.148;2023-07-28T05:10:56;17.00;99.90
10278;DHT22;5184;51.376;7.148;2023-07-28T05:13:22;17.00;99.90
10278;DHT22;5184;51.376;7.148;2023-07-28T05:15:49;17.00;99.90
10278;DHT22;5184;51.376;7.148;2023-07-28T05:18:17;17.10;99.90
10278;DHT22;5184;51.376;7.148;2023-07-28T05:20:43;17.10;99.90
10278;DHT22;5184;51.376;7.148;2023-07-28T05:23:10;17.10;99.90
10278;DHT22;5184;51.376;7.148;2023-07-28T05:25:37;17.10;99.90
10278;DHT22;5184;51.376;7.148;2023-07-28T05:28:03;17.20;99.90
10278;DHT22;5184;51.376;7.148;2023-07-28T05:30:30;17.20;99.90
10278;DHT22;5184;51.376;7.148;2023-07-28T05:32:56;17.20;99.90
10278;DHT22;5184;51.376;7.148;2023-07-28T05:35:24;17.20;99.90
10278;DHT22;5184;51.376;7.148;2023-07-28T05:37:51;17.20;99.90
10278;DHT22;5184;51.376;7.148;2023-07-28T05:40:18;17.20;99.90
10278;DHT22;5184;51.376;7.148;2023-07-28T05:42:45;17.20;99.90
10278;DHT22;5184;51.376;7.148;2023-07-28T05:45:12;17.20;99.90
10278;DHT22;5184;51.376;7.148;2023-07-28T05:47:38;17.30;99.90
10278;DHT22;5184;51.376;7.148;2023-07-28T05:50:06;17.30;99.90
10278;DHT22;5184;51.376;7.148;2023-07-28T05:52:33;17.30;99.90
10278;DHT22;5184;51.376;7.148;2023-07-28T05:55:00;17.30;99.90
10278;DHT22;5184;51.376;7.148;2023-07-28T05:57:28;17.30;99.90
10278;DHT22;5184;51.376;7.148;2023-07-28T05:59:54;17.30;99.90
10278;DHT22;5184;51.376;7.148;2023-07-28T06:02:21;17.30;99.90
10278;DHT22;5184;51.376;7.148;2023-07-28T06:04:48;17.40;99.90
10278;DHT22;5184;51.376;7.148;2023-07-28T06:07:15;17.40;99.90
10278;DHT22;5184;51.376;7.148;2023-07-28T06:09:42;17.40;99.90
10278;DHT22;5184;51.376;7.148;2023-07-28T06:12:10;17.50;99.90
10278;DHT22;5184;51.376;7.148;2023-07-28T06:14:37;17.50;99.90
10278;DHT22;5184;51.376;7.148;2023-07-28T06:17:04;17.50;99.90
10278;DHT22;5184;51.376;7.148;2023-07-28T06:19:30;17.50;99.90
10278;DHT22;5184;51.376;7.148;2023-07-28T06:21:57;17.60;99.90
10278;DHT22;5184;51.376;7.148;2023-07-28T06:24:24;17.70;99.90
10278;DHT22;5184;51.376;7.148;2023-07-28T06:26:51;17.70;99.90
10278;DHT22;5184;51.376;7.148;2023-07-28T06:29:18;17.80;99.90
10278;DHT22;5184;51.376;7.148;2023-07-28T06:31:45;17.80;99.90
10278;DHT22;5184;51.376;7.148;2023-07-28T06:34:11;17.80;99.90
10278;DHT22;5184;51.376;7.148;2023-07-28T06:36:38;17.80;99.90
10278;DHT22;5184;51.376;7.148;2023-07-28T06:39:05;17.80;99.90
10278;DHT22;5184;51.376;7.148;2023-07-28T06:41:33;17.70;99.90
10278;DHT22;5184;51.376;7.148;2023-07-28T06:44:00;17.70;99.90
10278;DHT22;5184;51.376;7.148;2023-07-28T06:46:28;17.70;99.90
10278;DHT22;5184;51.376;7.148;2023-07-28T06:48:54;17.70;99.90
10278;DHT22;5184;51.376;7.148;2023-07-28T06:51:21;17.80;99.90
10278;DHT22;5184;51.376;7.148;2023-07-28T06:53:47;17.90;99.90
10278;DHT22;5184;51.376;7.148;2023-07-28T06:56:14;17.90;99.90
10278;DHT22;5184;51.376;7.148;2023-07-28T06:58:40;17.90;99.90
10278;DHT22;5184;51.376;7.148;2023-07-28T07:01:08;17.80;99.90
10278;DHT22;5184;51.376;7.148;2023-07-28T07:03:35;17.90;99.90
10278;DHT22;5184;51.376;7.148;2023-07-28T07:06:02;17.80;99.90
10278;DHT22;5184;51.376;7.148;2023-07-28T07:08:29;17.80;99.90
10278;DHT22;5184;51.376;7.148;2023-07-28T07:10:56;17.80;99.90
10278;DHT22;5184;51.376;7.148;2023-07-28T07:13:23;17.80;99.90
10278;DHT22;5184;51.376;7.148;2023-07-28T07:15:49;17.90;99.90
10278;DHT22;5184;51.376;7.148;2023-07-28T07:18:16;17.90;99.90
10278;DHT22;5184;51.376;7.148;2023-07-28T07:20:43;18.10;99.90
10278;DHT22;5184;51.376;7.148;2023-07-28T07:23:11;18.20;99.90
10278;DHT22;5184;51.376;7.148;2023-07-28T07:25:39;18.20;99.90
10278;DHT22;5184;51.376;7.148;2023-07-28T07:28:05;18.20;99.90
10278;DHT22;5184;51.376;7.148;2023-07-28T07:30:32;18.20;99.90
10278;DHT22;5184;51.376;7.148;2023-07-28T07:32:59;18.30;99.90
10278;DHT22;5184;51.376;7.148;2023-07-28T07:35:25;18.20;99.90
10278;DHT22;5184;51.376;7.148;2023-07-28T07:37:53;18.40;99.90
10278;DHT22;5184;51.376;7.148;2023-07-28T07:40:20;18.30;99.90
10278;DHT22;5184;51.376;7.148;2023-07-28T07:42:47;18.30;99.90
10278;DHT22;5184;51.376;7.148;2023-07-28T07:45:13;18.30;99.90
10278;DHT22;5184;51.376;7.148;2023-07-28T07:47:40;17.90;99.90
10278;DHT22;5184;51.376;7.148;2023-07-28T07:50:08;18.50;99.90
10278;DHT22;5184;51.376;7.148;2023-07-28T07:52:35;18.50;99.90
10278;DHT22;5184;51.376;7.148;2023-07-28T07:55:01;18.50;99.90
10278;DHT22;5184;51.376;7.148;2023-07-28T07:57:29;18.60;99.90
10278;DHT22;5184;51.376;7.148;2023-07-28T07:59:57;18.70;99.90
10278;DHT22;5184;51.376;7.148;2023-07-28T08:02:24;18.60;99.90
10278;DHT22;5184;51.376;7.148;2023-07-28T08:04:52;18.70;99.90
10278;DHT22;5184;51.376;7.148;2023-07-28T08:07:18;18.80;99.90
10278;DHT22;5184;51.376;7.148;2023-07-28T08:09:45;18.80;99.90
10278;DHT22;5184;51.376;7.148;2023-07-28T08:12:11;18.80;99.90
10278;DHT22;5184;51.376;7.148;2023-07-28T08:14:38;18.80;99.90
10278;DHT22;5184;51.376;7.148;2023-07-28T08:17:05;18.70;99.90
10278;DHT22;5184;51.376;7.148;2023-07-28T08:19:32;18.70;99.90
10278;DHT22;5184;51.376;7.148;2023-07-28T08:21:59;18.70;99.90
10278;DHT22;5184;51.376;7.148;2023-07-28T08:24:26;18.80;99.90
10278;DHT22;5184;51.376;7.148;2023-07-28T08:26:52;18.80;99.90
10278;DHT22;5184;51.376;7.148;2023-07-28T08:29:19;18.90;99.90
10278;DHT22;5184;51.376;7.148;2023-07-28T08:31:45;18.90;99.90
10278;DHT22;5184;51.376;7.148;2023-07-28T08:34:13;19.00;99.90
10278;DHT22;5184;51.376;7.148;2023-07-28T08:36:40;19.00;99.90
10278;DHT22;5184;51.376;7.148;2023-07-28T08:39:07;19.00;99.90
10278;DHT22;5184;51.376;7.148;2023-07-28T08:41:33;19.10;99.90
10278;DHT22;5184;51.376;7.148;2023-07-28T08:44:00;19.10;99.90
10278;DHT22;5184;51.376;7.148;2023-07-28T08:46:27;19.10;99.90
10278;DHT22;5184;51.376;7.148;2023-07-28T08:48:53;19.20;99.90
10278;DHT22;5184;51.376;7.148;2023-07-28T08:51:22;19.20;99.90
10278;DHT22;5184;51.376;7.148;2023-07-28T08:56:24;19.20;99.90
10278;DHT22;5184;51.376;7.148;2023-07-28T08:58:56;19.20;99.90
10278;DHT22;5184;51.376;7.148;2023-07-28T09:01:19;19.20;99.90
10278;DHT22;5184;51.376;7.148;2023-07-28T09:03:44;19.20;99.90
10278;DHT22;5184;51.376;7.148;2023-07-28T09:06:11;19.10;99.90
10278;DHT22;5184;51.376;7.148;2023-07-28T09:08:37;19.20;99.90
10278;DHT22;5184;51.376;7.148;2023-07-28T09:11:04;19.20;99.90
10278;DHT22;5184;51.376;7.148;2023-07-28T09:13:37;19.30;99.90
10278;DHT22;5184;51.376;7.148;2023-07-28T09:16:02;19.30;99.90
10278;DHT22;5184;51.376;7.148;2023-07-28T09:18:29;19.40;99.90
10278;DHT22;5184;51.376;7.148;2023-07-28T09:20:55;19.30;99.90
10278;DHT22;5184;51.376;7.148;2023-07-28T09:23:28;19.30;99.90
10278;DHT22;5184;51.376;7.148;2023-07-28T09:25:58;19.30;99.90
10278;DHT22;5184;51.376;7.148;2023-07-28T09:28:20;19.10;99.90
10278;DHT22;5184;51.376;7.148;2023-07-28T09:30:47;19.20;99.90
10278;DHT22;5184;51.376;7.148;2023-07-28T09:33:28;19.20;99.90
10278;DHT22;5184;51.376;7.148;2023-07-28T09:35:48;19.20;99.90
10278;DHT22;5184;51.376;7.148;2023-07-28T09:38:14;19.20;99.90
10278;DHT22;5184;51.376;7.148;2023-07-28T09:40:41;19.30;99.90
10278;DHT22;5184;51.376;7.148;2023-07-28T09:43:08;19.40;99.90
10278;DHT22;5184;51.376;7.148;2023-07-28T09:45:36;19.50;99.90
10278;DHT22;5184;51.376;7.148;2023-07-28T09:48:02;19.40;99.90
10278;DHT22;5184;51.376;7.148;2023-07-28T09:50:31;19.60;99.90
10278;DHT22;5184;51.376;7.148;2023-07-28T09:52:57;19.60;99.90
10278;DHT22;5184;51.376;7.148;2023-07-28T09:55:23;19.60;99.90
10278;DHT22;5184;51.376;7.148;2023-07-28T09:57:51;19.60;99.90
10278;DHT22;5184;51.376;7.148;2023-07-28T10:00:17;19.60;99.90
10278;DHT22;5184;51.376;7.148;2023-07-28T10:02:44;19.70;99.90
10278;DHT22;5184;51.376;7.148;2023-07-28T10:05:11;19.70;99.90
10278;DHT22;5184;51.376;7.148;2023-07-28T10:07:39;19.70;99.90
10278;DHT22;5184;51.376;7.148;2023-07-28T10:10:07;19.90;99.90
10278;DHT22;5184;51.376;7.148;2023-07-28T10:12:45;19.90;99.90
10278;DHT22;5184;51.376;7.148;2023-07-28T10:15:13;19.90;99.90
10278;DHT22;5184;51.376;7.148;2023-07-28T10:17:39;19.80;99.90
10278;DHT22;5184;51.376;7.148;2023-07-28T10:20:16;20.00;99.90
10278;DHT22;5184;51.376;7.148;2023-07-28T10:22:48;20.00;99.90
10278;DHT22;5184;51.376;7.148;2023-07-28T10:25:21;20.20;99.90
10278;DHT22;5184;51.376;7.148;2023-07-28T10:27:44;20.30;99.90
10278;DHT22;5184;51.376;7.148;2023-07-28T10:30:11;20.40;99.90
10278;DHT22;5184;51.376;7.148;2023-07-28T10:32:40;20.40;99.90
10278;DHT22;5184;51.376;7.148;2023-07-28T10:35:26;20.70;99.90
10278;DHT22;5184;51.376;7.148;2023-07-28T10:37:54;20.90;99.90
10278;DHT22;5184;51.376;7.148;2023-07-28T10:42:54;21.10;70.70
10278;DHT22;5184;51.376;7.148;2023-07-28T10:45:22;21.00;97.90
10278;DHT22;5184;51.376;7.148;2023-07-28T10:47:48;21.00;99.90
10278;DHT22;5184;51.376;7.148;2023-07-28T10:50:15;20.90;80.00
10278;DHT22;5184;51.376;7.148;2023-07-28T10:52:42;20.90;99.90
10278;DHT22;5184;51.376;7.148;2023-07-28T10:55:13;20.90;99.90
10278;DHT22;5184;51.376;7.148;2023-07-28T10:57:40;20.90;99.90
10278;DHT22;5184;51.376;7.148;2023-07-28T11:00:07;21.10;82.60
10278;DHT22;5184;51.376;7.148;2023-07-28T11:02:36;21.10;79.10
10278;DHT22;5184;51.376;7.148;2023-07-28T11:05:03;21.40;1.00
10278;DHT22;5184;51.376;7.148;2023-07-28T11:07:26;21.50;1.00
10278;DHT22;5184;51.376;7.148;2023-07-28T11:09:53;21.60;1.00
10278;DHT22;5184;51.376;7.148;2023-07-28T11:12:20;21.70;49.60
10278;DHT22;5184;51.376;7.148;2023-07-28T11:14:46;21.70;93.00
10278;DHT22;5184;51.376;7.148;2023-07-28T11:17:14;21.80;99.90
10278;DHT22;5184;51.376;7.148;2023-07-28T11:19:41;22.00;99.90
10278;DHT22;5184;51.376;7.148;2023-07-28T11:22:08;22.00;99.90
10278;DHT22;5184;51.376;7.148;2023-07-28T11:24:34;22.10;99.90
10278;DHT22;5184;51.376;7.148;2023-07-28T11:27:01;21.90;82.60
10278;DHT22;5184;51.376;7.148;2023-07-28T11:29:28;21.90;74.40
10278;DHT22;5184;51.376;7.148;2023-07-28T11:31:54;22.00;77.60
10278;DHT22;5184;51.376;7.148;2023-07-28T11:34:21;22.00;1.00
10278;DHT22;5184;51.376;7.148;2023-07-28T11:36:49;21.80;1.00
10278;DHT22;5184;51.376;7.148;2023-07-28T11:39:16;21.80;1.00
10278;DHT22;5184;51.376;7.148;2023-07-28T11:41:43;21.70;1.00
10278;DHT22;5184;51.376;7.148;2023-07-28T11:44:10;21.60;1.00
10278;DHT22;5184;51.376;7.148;2023-07-28T11:46:38;21.40;1.00
10278;DHT22;5184;51.376;7.148;2023-07-28T11:49:13;21.20;55.70
10278;DHT22;5184;51.376;7.148;2023-07-28T11:51:40;21.40;99.90
10278;DHT22;5184;51.376;7.148;2023-07-28T11:54:06;21.70;99.90
10278;DHT22;5184;51.376;7.148;2023-07-28T11:56:32;21.90;99.90
10278;DHT22;5184;51.376;7.148;2023-07-28T11:58:59;22.00;99.90
10278;DHT22;5184;51.376;7.148;2023-07-28T12:01:26;22.20;99.90
10278;DHT22;5184;51.376;7.148;2023-07-28T12:03:52;22.40;99.90
10278;DHT22;5184;51.376;7.148;2023-07-28T12:06:19;22.70;99.90
10278;DHT22;5184;51.376;7.148;2023-07-28T12:08:45;22.70;99.90
10278;DHT22;5184;51.376;7.148;2023-07-28T12:11:13;22.30;99.90
10278;DHT22;5184;51.376;7.148;2023-07-28T12:13:47;22.30;99.90
10278;DHT22;5184;51.376;7.148;2023-07-28T12:16:31;21.80;99.90
10278;DHT22;5184;51.376;7.148;2023-07-28T12:18:57;21.80;99.90
10278;DHT22;5184;51.376;7.148;2023-07-28T12:21:23;21.60;99.90
10278;DHT22;5184;51.376;7.148;2023-07-28T12:23:51;21.30;99.90
10278;DHT22;5184;51.376;7.148;2023-07-28T12:26:18;21.20;99.90
10278;DHT22;5184;51.376;7.148;2023-07-28T12:28:45;21.20;99.90
10278;DHT22;5184;51.376;7.148;2023-07-28T12:31:12;21.20;99.90
10278;DHT22;5184;51.376;7.148;2023-07-28T12:33:39;21.20;99.90
10278;DHT22;5184;51.376;7.148;2023-07-28T12:36:05;21.00;99.90
10278;DHT22;5184;51.376;7.148;2023-07-28T12:38:32;21.10;99.90
10278;DHT22;5184;51.376;7.148;2023-07-28T12:40:58;21.10;99.90
10278;DHT22;5184;51.376;7.148;2023-07-28T12:43:25;21.30;99.90
10278;DHT22;5184;51.376;7.148;2023-07-28T12:45:53;21.40;99.90
10278;DHT22;5184;51.376;7.148;2023-07-28T12:48:20;21.60;99.90
10278;DHT22;5184;51.376;7.148;2023-07-28T12:50:47;21.60;99.90
10278;DHT22;5184;51.376;7.148;2023-07-28T12:53:13;21.70;99.90
10278;DHT22;5184;51.376;7.148;2023-07-28T12:55:40;21.90;99.90
10278;DHT22;5184;51.376;7.148;2023-07-28T12:58:06;21.90;99.90
10278;DHT22;5184;51.376;7.148;2023-07-28T13:00:33;21.80;99.90
10278;DHT22;5184;51.376;7.148;2023-07-28T13:03:00;21.60;99.90
10278;DHT22;5184;51.376;7.148;2023-07-28T13:05:28;21.70;99.90
10278;DHT22;5184;51.376;7.148;2023-07-28T13:07:54;21.70;99.90
10278;DHT22;5184;51.376;7.148;2023-07-28T13:10:21;21.90;99.90
10278;DHT22;5184;51.376;7.148;2023-07-28T13:12:47;22.10;99.90
10278;DHT22;5184;51.376;7.148;2023-07-28T13:15:14;22.20;99.90
10278;DHT22;5184;51.376;7.148;2023-07-28T13:17:41;22.30;99.90
10278;DHT22;5184;51.376;7.148;2023-07-28T13:20:08;22.40;99.90
10278;DHT22;5184;51.376;7.148;2023-07-28T13:22:35;22.40;99.90
10278;DHT22;5184;51.376;7.148;2023-07-28T13:25:03;22.60;99.90
10278;DHT22;5184;51.376;7.148;2023-07-28T13:27:30;22.60;99.90
10278;DHT22;5184;51.376;7.148;2023-07-28T13:29:57;22.60;99.90
10278;DHT22;5184;51.376;7.148;2023-07-28T13:32:24;22.60;99.90
10278;DHT22;5184;51.376;7.148;2023-07-28T13:34:50;22.60;99.90
10278;DHT22;5184;51.376;7.148;2023-07-28T13:37:17;22.60;99.90
10278;DHT22;5184;51.376;7.148;2023-07-28T13:39:43;22.80;99.90
10278;DHT22;5184;51.376;7.148;2023-07-28T13:42:11;23.20;99.90
10278;DHT22;5184;51.376;7.148;2023-07-28T13:44:38;23.20;99.90
10278;DHT22;5184;51.376;7.148;2023-07-28T13:47:04;23.10;99.90
10278;DHT22;5184;51.376;7.148;2023-07-28T13:49:31;22.90;99.90
10278;DHT22;5184;51.376;7.148;2023-07-28T13:51:57;22.80;99.90
10278;DHT22;5184;51.376;7.148;2023-07-28T13:54:24;22.60;99.90
10278;DHT22;5184;51.376;7.148;2023-07-28T13:56:51;22.20;99.90
10278;DHT22;5184;51.376;7.148;2023-07-28T13:59:18;22.10;99.90
10278;DHT22;5184;51.376;7.148;2023-07-28T14:01:46;22.00;99.90
10278;DHT22;5184;51.376;7.148;2023-07-28T14:04:12;22.00;99.90
10278;DHT22;5184;51.376;7.148;2023-07-28T14:06:39;21.80;99.90
10278;DHT22;5184;51.376;7.148;2023-07-28T14:09:06;21.70;99.90
10278;DHT22;5184;51.376;7.148;2023-07-28T14:11:33;21.50;99.90
10278;DHT22;5184;51.376;7.148;2023-07-28T14:13:59;21.50;99.90
10278;DHT22;5184;51.376;7.148;2023-07-28T14:16:26;21.50;99.90
10278;DHT22;5184;51.376;7.148;2023-07-28T14:18:53;21.70;99.90
10278;DHT22;5184;51.376;7.148;2023-07-28T14:21:19;21.80;99.90
10278;DHT22;5184;51.376;7.148;2023-07-28T14:23:46;21.80;99.90
10278;DHT22;5184;51.376;7.148;2023-07-28T14:26:12;22.00;99.90
10278;DHT22;5184;51.376;7.148;2023-07-28T14:28:39;22.10;99.90
10278;DHT22;5184;51.376;7.148;2023-07-28T14:31:06;22.10;99.90
10278;DHT22;5184;51.376;7.148;2023-07-28T14:33:34;22.10;99.90
10278;DHT22;5184;51.376;7.148;2023-07-28T14:36:00;22.10;99.90
10278;DHT22;5184;51.376;7.148;2023-07-28T14:38:27;22.00;99.90
10278;DHT22;5184;51.376;7.148;2023-07-28T14:40:54;22.10;99.90
10278;DHT22;5184;51.376;7.148;2023-07-28T14:43:20;22.10;99.90
10278;DHT22;5184;51.376;7.148;2023-07-28T14:45:48;22.10;99.90
10278;DHT22;5184;51.376;7.148;2023-07-28T14:48:14;22.10;99.90
10278;DHT22;5184;51.376;7.148;2023-07-28T14:50:41;22.20;99.90
10278;DHT22;5184;51.376;7.148;2023-07-28T14:55:46;22.40;99.90
10278;DHT22;5184;51.376;7.148;2023-07-28T14:58:13;22.60;99.90
10278;DHT22;5184;51.376;7.148;2023-07-28T15:00:40;22.60;99.90
10278;DHT22;5184;51.376;7.148;2023-07-28T15:03:06;22.40;99.90
10278;DHT22;5184;51.376;7.148;2023-07-28T15:05:33;22.20;99.90
10278;DHT22;5184;51.376;7.148;2023-07-28T15:08:01;22.20;99.90
10278;DHT22;5184;51.376;7.148;2023-07-28T15:10:27;22.20;99.90
10278;DHT22;5184;51.376;7.148;2023-07-28T15:12:54;22.30;99.90
10278;DHT22;5184;51.376;7.148;2023-07-28T15:15:22;22.30;99.90
10278;DHT22;5184;51.376;7.148;2023-07-28T15:17:49;22.20;99.90
10278;DHT22;5184;51.376;7.148;2023-07-28T15:20:15;22.20;99.90
10278;DHT22;5184;51.376;7.148;2023-07-28T15:22:42;22.20;99.90
10278;DHT22;5184;51.376;7.148;2023-07-28T15:25:09;22.30;99.90
10278;DHT22;5184;51.376;7.148;2023-07-28T15:27:35;22.30;99.90
10278;DHT22;5184;51.376;7.148;2023-07-28T15:30:02;22.40;99.90
10278;DHT22;5184;51.376;7.148;2023-07-28T15:32:28;22.40;99.90
10278;DHT22;5184;51.376;7.148;2023-07-28T15:34:56;22.10;99.90
10278;DHT22;5184;51.376;7.148;2023-07-28T15:37:23;22.10;99.90
10278;DHT22;5184;51.376;7.148;2023-07-28T15:39:50;21.90;99.90
10278;DHT22;5184;51.376;7.148;2023-07-28T15:42:17;21.90;99.90
10278;DHT22;5184;51.376;7.148;2023-07-28T15:44:44;21.70;99.90
10278;DHT22;5184;51.376;7.148;2023-07-28T15:47:10;21.70;99.90
10278;DHT22;5184;51.376;7.148;2023-07-28T15:49:38;21.70;99.90
10278;DHT22;5184;51.376;7.148;2023-07-28T15:52:05;21.70;99.90
10278;DHT22;5184;51.376;7.148;2023-07-28T15:54:32;21.70;99.90
10278;DHT22;5184;51.376;7.148;2023-07-28T15:56:58;21.70;99.90
10278;DHT22;5184;51.376;7.148;2023-07-28T15:59:28;21.60;99.90
10278;DHT22;5184;51.376;7.148;2023-07-28T16:01:53;21.60;99.90
10278;DHT22;5184;51.376;7.148;2023-07-28T16:04:21;21.50;99.90
10278;DHT22;5184;51.376;7.148;2023-07-28T16:06:47;21.60;99.90
10278;DHT22;5184;51.376;7.148;2023-07-28T16:09:14;21.40;99.90
10278;DHT22;5184;51.376;7.148;2023-07-28T16:11:40;21.30;99.90
10278;DHT22;5184;51.376;7.148;2023-07-28T16:14:07;21.10;99.90
10278;DHT22;5184;51.376;7.148;2023-07-28T16:16:34;21.00;99.90